sensor_id;sensor_type;location;lat;lon;timestamp;temperature;humidity
46123;DHT22;31856;-35.404;149.120;2023-12-07T12:03:41;23.00;49.10
46123;DHT22;31856;-35.404;149.120;2023-12-07T12:06:12;23.00;49.00
46123;DHT22;31856;-35.404;149.120;2023-12-07T12:08:42;23.00;48.90
46123;DHT22;31856;-35.404;149.120;2023-12-07T12:11:12;23.00;49.60
46123;DHT22;31856;-35.404;149.120;2023-12-07T12:13:42;22.90;50.00
46123;DHT22;31856;-35.404;149.120;2023-12-07T12:16:12;22.80;51.20
46123;DHT22;31856;-35.404;149.120;2023-12-07T12:18:41;22.70;51.40
46123;DHT22;31856;-35.404;149.120;2023-12-07T12:21:12;22.70;52.20
46123;DHT22;31856;-35.404;149.120;2023-12-07T12:23:42;22.60;52.10
46123;DHT22;31856;-35.404;149.120;2023-12-07T12:26:12;22.60;51.80
46123;DHT22;31856;-35.404;149.120;2023-12-07T12:28:42;22.60;52.10
46123;DHT22;31856;-35.404;149.120;2023-12-07T12:31:12;22.50;51.70
46123;DHT22;31856;-35.404;149.120;2023-12-07T12:33:43;22.50;52.00
46123;DHT22;31856;-35.404;149.120;2023-12-07T12:36:13;22.50;51.90
46123;DHT22;31856;-35.404;149.120;2023-12-07T12:38:46;22.50;52.00
46123;DHT22;31856;-35.404;149.120;2023-12-07T12:41:19;22.50;52.30
46123;DHT22;31856;-35.404;149.120;2023-12-07T12:43:49;22.40;51.90
46123;DHT22;31856;-35.404;149.120;2023-12-07T12:46:20;22.40;52.50
46123;DHT22;31856;-35.404;149.120;2023-12-07T12:48:53;22.30;53.10
46123;DHT22;31856;-35.404;149.120;2023-12-07T12:51:25;22.30;52.50
46123;DHT22;31856;-35.404;149.120;2023-12-07T12:53:56;22.30;51.90
46123;DHT22;31856;-35.404;149.120;2023-12-07T12:56:28;22.20;52.40
46123;DHT22;31856;-35.404;149.120;2023-12-07T12:58:58;22.20;52.00
46123;DHT22;31856;-35.404;149.120;2023-12-07T13:04:18;22.30;52.00
46123;DHT22;31856;-35.404;149.120;2023-12-07T13:06:49;22.30;52.20
46123;DHT22;31856;-35.404;149.120;2023-12-07T13:09:19;22.30;52.10
46123;DHT22;31856;-35.404;149.120;2023-12-07T13:11:50;22.30;52.70
46123;DHT22;31856;-35.404;149.120;2023-12-07T13:14:19;22.20;54.40
46123;DHT22;31856;-35.404;149.120;2023-12-07T13:16:49;22.10;54.00
46123;DHT22;31856;-35.404;149.120;2023-12-07T13:19:19;22.10;53.50
46123;DHT22;31856;-35.404;149.120;2023-12-07T13:21:50;22.10;53.30
46123;DHT22;31856;-35.404;149.120;2023-12-07T13:24:21;22.10;53.20
46123;DHT22;31856;-35.404;149.120;2023-12-07T13:26:51;22.10;53.40
46123;DHT22;31856;-35.404;149.120;2023-12-07T13:29:24;22.10;53.20
46123;DHT22;31856;-35.404;149.120;2023-12-07T13:32:03;22.10;53.40
46123;DHT22;31856;-35.404;149.120;2023-12-07T13:34:33;22.00;53.90
46123;DHT22;31856;-35.404;149.120;2023-12-07T13:37:02;22.00;54.10
46123;DHT22;31856;-35.404;149.120;2023-12-07T13:39:32;21.90;54.30
46123;DHT22;31856;-35.404;149.120;2023-12-07T13:42:02;21.90;54.10
46123;DHT22;31856;-35.404;149.120;2023-12-07T13:44:34;21.90;53.60
46123;DHT22;31856;-35.404;149.120;2023-12-07T13:47:04;21.80;53.40
46123;DHT22;31856;-35.404;149.120;2023-12-07T13:49:33;21.80;53.50
46123;DHT22;31856;-35.404;149.120;2023-12-07T13:52:03;21.80;53.50
46123;DHT22;31856;-35.404;149.120;2023-12-07T13:54:35;21.80;53.60
46123;DHT22;31856;-35.404;149.120;2023-12-07T13:57:08;21.80;53.60
46123;DHT22;31856;-35.404;149.120;2023-12-07T13:59:39;21.80;53.30
46123;DHT22;31856;-35.404;149.120;2023-12-07T14:02:10;21.80;53.90
46123;DHT22;31856;-35.404;149.120;2023-12-07T15:39:21;21.30;56.20
46123;DHT22;31856;-35.404;149.120;2023-12-07T15:41:50;21.30;56.10
46123;DHT22;31856;-35.404;149.120;2023-12-07T15:44:22;21.30;56.30
46123;DHT22;31856;-35.404;149.120;2023-12-07T15:46:56;21.30;56.80
46123;DHT22;31856;-35.404;149.120;2023-12-07T15:49:27;21.30;56.30
46123;DHT22;31856;-35.404;149.120;2023-12-07T15:51:56;21.30;57.00
46123;DHT22;31856;-35.404;149.120;2023-12-07T15:54:27;21.20;57.30
46123;DHT22;31856;-35.404;149.120;2023-12-07T15:57:07;21.20;57.20
46123;DHT22;31856;-35.404;149.120;2023-12-07T15:59:38;21.20;56.90
46123;DHT22;31856;-35.404;149.120;2023-12-07T16:02:08;21.30;57.30
46123;DHT22;31856;-35.404;149.120;2023-12-07T16:04:38;21.30;57.70
46123;DHT22;31856;-35.404;149.120;2023-12-07T16:07:08;21.30;57.80
46123;DHT22;31856;-35.404;149.120;2023-12-07T16:09:38;21.20;57.90
46123;DHT22;31856;-35.404;149.120;2023-12-07T16:12:11;21.30;58.30
46123;DHT22;31856;-35.404;149.120;2023-12-07T16:14:41;21.20;59.20
46123;DHT22;31856;-35.404;149.120;2023-12-07T16:17:11;21.20;59.10
46123;DHT22;31856;-35.404;149.120;2023-12-07T16:19:41;21.10;58.90
46123;DHT22;31856;-35.404;149.120;2023-12-07T16:22:10;21.10;59.40
46123;DHT22;31856;-35.404;149.120;2023-12-07T16:24:40;21.10;59.30
46123;DHT22;31856;-35.404;149.120;2023-12-07T16:27:10;21.10;58.70
46123;DHT22;31856;-35.404;149.120;2023-12-07T16:29:40;21.10;58.70
46123;DHT22;31856;-35.404;149.120;2023-12-07T16:32:09;21.10;58.70
46123;DHT22;31856;-35.404;149.120;2023-12-07T16:34:41;21.10;58.70
46123;DHT22;31856;-35.404;149.120;2023-12-07T17:27:00;20.70;61.40
46123;DHT22;31856;-35.404;149.120;2023-12-07T17:29:30;20.60;61.70
46123;DHT22;31856;-35.404;149.120;2023-12-07T17:31:59;20.50;62.40
46123;DHT22;31856;-35.404;149.120;2023-12-07T17:34:29;20.50;62.50
46123;DHT22;31856;-35.404;149.120;2023-12-07T17:36:59;20.50;62.40
46123;DHT22;31856;-35.404;149.120;2023-12-07T17:39:28;20.40;63.00
46123;DHT22;31856;-35.404;149.120;2023-12-07T17:41:58;20.40;62.50
46123;DHT22;31856;-35.404;149.120;2023-12-07T17:44:28;20.30;62.60
46123;DHT22;31856;-35.404;149.120;2023-12-07T17:46:57;20.40;62.70
46123;DHT22;31856;-35.404;149.120;2023-12-07T17:49:27;20.30;63.20
46123;DHT22;31856;-35.404;149.120;2023-12-07T17:51:57;20.30;63.00
46123;DHT22;31856;-35.404;149.120;2023-12-07T17:54:26;20.30;63.00
46123;DHT22;31856;-35.404;149.120;2023-12-07T17:56:57;20.30;63.10
46123;DHT22;31856;-35.404;149.120;2023-12-07T17:59:27;20.20;63.60
46123;DHT22;31856;-35.404;149.120;2023-12-07T18:01:57;20.20;63.40
46123;DHT22;31856;-35.404;149.120;2023-12-07T18:04:28;20.20;63.40
46123;DHT22;31856;-35.404;149.120;2023-12-07T18:06:57;20.20;63.50
46123;DHT22;31856;-35.404;149.120;2023-12-07T18:09:27;20.10;63.20
46123;DHT22;31856;-35.404;149.120;2023-12-07T18:11:57;20.20;63.20
46123;DHT22;31856;-35.404;149.120;2023-12-07T18:14:30;20.10;63.30
46123;DHT22;31856;-35.404;149.120;2023-12-07T18:17:00;20.20;62.80
46123;DHT22;31856;-35.404;149.120;2023-12-07T18:19:30;20.10;62.80
46123;DHT22;31856;-35.404;149.120;2023-12-07T18:22:00;20.10;63.00
46123;DHT22;31856;-35.404;149.120;2023-12-07T18:24:30;20.00;63.40
46123;DHT22;31856;-35.404;149.120;2023-12-07T18:48:13;20.20;60.80
46123;DHT22;31856;-35.404;149.120;2023-12-07T18:50:43;20.20;60.90
46123;DHT22;31856;-35.404;149.120;2023-12-07T18:53:13;20.10;61.10
46123;DHT22;31856;-35.404;149.120;2023-12-07T18:55:43;20.20;61.30
46123;DHT22;31856;-35.404;149.120;2023-12-07T18:58:13;20.10;61.30
46123;DHT22;31856;-35.404;149.120;2023-12-07T19:00:42;20.10;61.80
46123;DHT22;31856;-35.404;149.120;2023-12-07T19:03:12;20.10;61.80
46123;DHT22;31856;-35.404;149.120;2023-12-07T19:05:41;20.10;61.80
46123;DHT22;31856;-35.404;149.120;2023-12-07T19:08:11;20.10;61.40
46123;DHT22;31856;-35.404;149.120;2023-12-07T19:10:42;20.20;61.30
46123;DHT22;31856;-35.404;149.120;2023-12-07T19:13:12;20.20;61.40
46123;DHT22;31856;-35.404;149.120;2023-12-07T19:15:42;20.20;61.50
46123;DHT22;31856;-35.404;149.120;2023-12-07T19:18:12;20.20;61.80
46123;DHT22;31856;-35.404;149.120;2023-12-07T19:20:42;20.10;62.30
46123;DHT22;31856;-35.404;149.120;2023-12-07T19:23:11;20.10;62.50
46123;DHT22;31856;-35.404;149.120;2023-12-07T19:25:41;20.20;62.00
46123;DHT22;31856;-35.404;149.120;2023-12-07T19:28:10;20.20;62.10
46123;DHT22;31856;-35.404;149.120;2023-12-07T19:30:40;20.20;62.60
46123;DHT22;31856;-35.404;149.120;2023-12-07T19:33:10;20.20;62.90
46123;DHT22;31856;-35.404;149.120;2023-12-07T19:35:39;20.20;62.60
46123;DHT22;31856;-35.404;149.120;2023-12-07T19:38:09;20.20;62.40
46123;DHT22;31856;-35.404;149.120;2023-12-07T19:40:39;20.30;61.90
46123;DHT22;31856;-35.404;149.120;2023-12-07T19:43:09;20.30;61.80
46123;DHT22;31856;-35.404;149.120;2023-12-07T19:45:38;20.40;61.80
46123;DHT22;31856;-35.404;149.120;2023-12-07T20:15:26;20.50;63.00
46123;DHT22;31856;-35.404;149.120;2023-12-07T20:17:55;20.50;63.00
46123;DHT22;31856;-35.404;149.120;2023-12-07T20:20:25;20.60;63.20
46123;DHT22;31856;-35.404;149.120;2023-12-07T20:22:55;20.60;63.40
46123;DHT22;31856;-35.404;149.120;2023-12-07T20:25:30;20.60;63.10
46123;DHT22;31856;-35.404;149.120;2023-12-07T20:28:00;20.70;63.60
46123;DHT22;31856;-35.404;149.120;2023-12-07T20:30:30;20.70;63.70
46123;DHT22;31856;-35.404;149.120;2023-12-07T20:32:59;20.70;63.60
46123;DHT22;31856;-35.404;149.120;2023-12-07T20:35:29;20.80;62.20
46123;DHT22;31856;-35.404;149.120;2023-12-07T20:37:59;20.80;62.40
46123;DHT22;31856;-35.404;149.120;2023-12-07T20:40:28;20.70;61.60
46123;DHT22;31856;-35.404;149.120;2023-12-07T20:42:58;20.80;62.20
46123;DHT22;31856;-35.404;149.120;2023-12-07T20:45:27;20.70;62.30
46123;DHT22;31856;-35.404;149.120;2023-12-07T20:47:56;20.80;62.30
46123;DHT22;31856;-35.404;149.120;2023-12-07T20:50:27;20.80;62.70
46123;DHT22;31856;-35.404;149.120;2023-12-07T20:52:56;20.80;63.00
46123;DHT22;31856;-35.404;149.120;2023-12-07T20:55:26;20.80;62.40
46123;DHT22;31856;-35.404;149.120;2023-12-07T20:57:57;20.80;62.60
46123;DHT22;31856;-35.404;149.120;2023-12-07T21:00:26;20.90;62.90
46123;DHT22;31856;-35.404;149.120;2023-12-07T21:02:56;20.90;62.10
46123;DHT22;31856;-35.404;149.120;2023-12-07T21:05:30;21.00;62.90
46123;DHT22;31856;-35.404;149.120;2023-12-07T21:08:00;21.00;62.40
46123;DHT22;31856;-35.404;149.120;2023-12-07T21:10:29;21.10;62.20
